createdAt,value
2022-11-05T00:00:00.938Z,5.20
2022-11-05T00:01:00.529Z,5.50
2022-11-05T00:02:00.895Z,5.50
2022-11-05T00:03:00.537Z,5.50
2022-11-05T00:04:00.408Z,5.50
2022-11-05T00:05:00.311Z,5.50
2022-11-05T00:06:00.492Z,5.50
2022-11-05T00:07:10.300Z,5.50
2022-11-05T00:08:01.950Z,5.50
2022-11-05T00:09:00.383Z,5.50
2022-11-05T00:10:02.167Z,5.50
2022-11-05T00:11:00.391Z,5.50
2022-11-05T00:12:05.809Z,5.50
2022-11-05T00:13:00.355Z,5.50
2022-11-05T00:14:00.325Z,5.50
2022-11-05T00:15:00.309Z,5.50
2022-11-05T00:16:00.339Z,5.50
2022-11-05T00:17:00.293Z,5.50
2022-11-05T00:18:00.374Z,5.50
2022-11-05T00:19:00.298Z,5.50
2022-11-05T00:20:00.516Z,5.50
2022-11-05T00:21:00.467Z,5.50
2022-11-05T00:22:00.387Z,5.50
2022-11-05T00:23:02.188Z,5.50
2022-11-05T00:24:00.303Z,5.50
2022-11-05T00:25:00.308Z,5.50
2022-11-05T00:26:01.783Z,5.50
2022-11-05T00:27:00.319Z,5.50
2022-11-05T00:28:01.105Z,5.50
2022-11-05T00:29:00.304Z,5.50
2022-11-05T00:30:00.314Z,5.50
2022-11-05T00:31:01.324Z,6.60
2022-11-05T00:32:00.305Z,6.60
2022-11-05T00:33:00.796Z,6.60
2022-11-05T00:34:00.309Z,6.60
2022-11-05T00:35:00.334Z,6.60
2022-11-05T00:36:01.998Z,6.60
2022-11-05T00:37:00.354Z,6.60
2022-11-05T00:38:00.310Z,6.60
2022-11-05T00:39:00.298Z,6.60
2022-11-05T00:40:00.320Z,6.60
2022-11-05T00:41:00.660Z,6.60
2022-11-05T00:42:00.321Z,6.60
2022-11-05T00:43:00.356Z,6.60
2022-11-05T00:44:00.304Z,6.60
2022-11-05T00:45:00.360Z,6.60
2022-11-05T00:46:00.312Z,6.60
2022-11-05T00:47:00.297Z,6.60
2022-11-05T00:48:00.303Z,6.60
2022-11-05T00:49:00.315Z,6.60
2022-11-05T00:50:00.350Z,6.60
2022-11-05T00:51:00.350Z,6.60
2022-11-05T00:52:00.304Z,6.60
2022-11-05T00:53:00.437Z,6.60
2022-11-05T00:54:00.338Z,6.60
2022-11-05T00:55:00.306Z,6.60
2022-11-05T00:56:00.745Z,6.60
2022-11-05T00:57:04.466Z,6.60
2022-11-05T00:58:01.432Z,6.60
2022-11-05T00:59:00.316Z,6.60
2022-11-05T01:00:00.373Z,6.60
2022-11-05T01:01:00.366Z,6.30
2022-11-05T01:02:00.432Z,6.30
2022-11-05T01:03:01.588Z,6.30
2022-11-05T01:04:00.300Z,6.30
2022-11-05T01:05:00.346Z,6.30
2022-11-05T01:06:09.565Z,6.30
2022-11-05T01:07:00.294Z,6.30
2022-11-05T01:08:00.482Z,6.30
2022-11-05T01:09:00.313Z,6.30
2022-11-05T01:10:00.345Z,6.30
2022-11-05T01:11:06.828Z,6.30
2022-11-05T01:12:00.327Z,6.30
2022-11-05T01:13:00.473Z,6.30
2022-11-05T01:14:05.489Z,6.30
2022-11-05T01:15:00.336Z,6.30
2022-11-05T01:16:04.518Z,6.30
2022-11-05T01:17:00.323Z,6.30
2022-11-05T01:18:00.301Z,6.30
2022-11-05T01:19:01.040Z,6.30
2022-11-05T01:20:00.388Z,6.30
2022-11-05T01:21:08.680Z,6.30
2022-11-05T01:22:00.324Z,6.30
2022-11-05T01:23:00.326Z,6.30
2022-11-05T01:24:00.425Z,6.30
2022-11-05T01:25:00.333Z,6.30
2022-11-05T01:26:00.303Z,6.30
2022-11-05T01:27:00.370Z,6.30
2022-11-05T01:28:00.797Z,6.30
2022-11-05T01:29:00.588Z,6.30
2022-11-05T01:30:00.461Z,6.30
2022-11-05T01:31:00.291Z,5.40
2022-11-05T01:32:00.356Z,5.40
2022-11-05T01:33:00.492Z,5.40
2022-11-05T01:34:00.313Z,5.40
2022-11-05T01:35:00.465Z,5.40
2022-11-05T01:36:00.409Z,5.40
2022-11-05T01:37:00.359Z,5.40
2022-11-05T01:38:00.317Z,5.40
2022-11-05T01:39:00.341Z,5.40
2022-11-05T01:40:00.362Z,5.40
2022-11-05T01:41:00.475Z,5.40
2022-11-05T01:42:00.516Z,5.40
2022-11-05T01:43:00.363Z,5.40
2022-11-05T01:44:00.333Z,5.40
2022-11-05T01:45:03.529Z,5.40
2022-11-05T01:46:00.612Z,5.40
2022-11-05T01:47:00.387Z,5.40
2022-11-05T01:48:03.651Z,5.40
2022-11-05T01:49:05.716Z,5.40
2022-11-05T01:50:02.751Z,5.40
2022-11-05T01:51:03.710Z,5.40
2022-11-05T01:52:02.411Z,5.40
2022-11-05T01:53:03.703Z,5.40
2022-11-05T01:54:02.525Z,5.40
2022-11-05T01:55:01.161Z,5.40
2022-11-05T01:56:04.221Z,5.40
2022-11-05T01:57:03.217Z,5.40
2022-11-05T01:58:01.248Z,5.40
2022-11-05T01:59:10.218Z,5.40
2022-11-05T02:00:00.590Z,5.40
2022-11-05T02:01:00.450Z,6.00
2022-11-05T02:02:01.117Z,6.00
2022-11-05T02:03:00.580Z,6.00
2022-11-05T02:04:03.687Z,6.00
2022-11-05T02:05:02.320Z,6.00
2022-11-05T02:06:01.707Z,6.00
2022-11-05T02:07:01.550Z,6.00
2022-11-05T02:08:01.058Z,6.00
2022-11-05T02:09:00.289Z,6.00
2022-11-05T02:10:01.978Z,6.00
2022-11-05T02:11:00.430Z,6.00
2022-11-05T02:12:00.695Z,6.00
2022-11-05T02:13:00.451Z,6.00
2022-11-05T02:14:00.318Z,6.00
2022-11-05T02:15:00.370Z,6.00
2022-11-05T02:16:00.347Z,6.00
2022-11-05T02:17:04.372Z,6.00
2022-11-05T02:18:01.325Z,6.00
2022-11-05T02:19:10.227Z,6.00
2022-11-05T02:20:10.245Z,6.00
2022-11-05T02:21:01.331Z,6.00
2022-11-05T02:22:10.208Z,6.00
2022-11-05T02:23:01.317Z,6.00
2022-11-05T02:24:00.290Z,6.00
2022-11-05T02:25:00.299Z,6.00
2022-11-05T02:26:10.223Z,6.00
2022-11-05T02:27:08.840Z,6.00
2022-11-05T02:28:07.607Z,6.00
2022-11-05T02:29:10.217Z,6.00
2022-11-05T02:30:01.337Z,6.00
2022-11-05T02:31:03.584Z,6.70
2022-11-05T02:32:00.283Z,6.70
2022-11-05T02:33:07.871Z,6.70
2022-11-05T02:34:01.284Z,6.70
2022-11-05T02:35:00.297Z,6.70
2022-11-05T02:36:10.202Z,6.70
2022-11-05T02:37:03.616Z,6.70
2022-11-05T02:38:06.164Z,6.70
2022-11-05T02:39:03.573Z,6.70
2022-11-05T02:40:03.842Z,6.70
2022-11-05T02:41:10.259Z,6.70
2022-11-05T02:42:07.167Z,6.70
2022-11-05T02:43:00.303Z,6.70
2022-11-05T02:44:01.358Z,6.70
2022-11-05T02:45:03.578Z,6.70
2022-11-05T02:46:07.679Z,6.70
2022-11-05T02:47:14.114Z,6.70
2022-11-05T02:48:07.790Z,6.70
2022-11-05T02:49:07.641Z,6.70
2022-11-05T02:50:01.324Z,6.70
2022-11-05T02:51:06.772Z,6.70
2022-11-05T02:52:04.148Z,6.70
2022-11-05T02:53:03.042Z,6.70
2022-11-05T02:54:01.341Z,6.70
2022-11-05T02:55:10.231Z,6.70
2022-11-05T02:56:03.292Z,6.70
2022-11-05T02:57:01.057Z,6.70
2022-11-05T02:58:01.935Z,6.70
2022-11-05T02:59:00.366Z,6.70
2022-11-05T03:00:01.262Z,6.70
2022-11-05T03:01:00.607Z,7.90
2022-11-05T03:02:01.923Z,7.90
2022-11-05T03:03:01.169Z,7.90
2022-11-05T03:04:02.270Z,7.90
2022-11-05T03:05:01.323Z,7.90
2022-11-05T03:06:10.243Z,7.90
2022-11-05T03:07:08.341Z,7.90
2022-11-05T03:08:06.734Z,7.90
2022-11-05T03:09:10.239Z,7.90
2022-11-05T03:10:08.821Z,7.90
2022-11-05T03:11:02.591Z,7.90
2022-11-05T03:12:10.251Z,7.90
2022-11-05T03:13:07.474Z,7.90
2022-11-05T03:14:01.323Z,7.90
2022-11-05T03:15:10.242Z,7.90
2022-11-05T03:16:03.270Z,7.90
2022-11-05T03:17:01.316Z,7.90
2022-11-05T03:18:09.921Z,7.90
2022-11-05T03:19:07.828Z,7.90
2022-11-05T03:20:09.241Z,7.90
2022-11-05T03:21:04.015Z,7.90
2022-11-05T03:22:03.839Z,7.90
2022-11-05T03:23:00.290Z,7.90
2022-11-05T03:24:05.081Z,7.90
2022-11-05T03:25:02.018Z,7.90
2022-11-05T03:26:10.237Z,7.90
2022-11-05T03:27:04.710Z,7.90
2022-11-05T03:28:04.328Z,7.90
2022-11-05T03:29:03.115Z,7.90
2022-11-05T03:30:02.288Z,7.90
2022-11-05T03:31:00.528Z,7.90
2022-11-05T03:32:02.116Z,6.70
2022-11-05T03:33:02.448Z,6.70
2022-11-05T03:34:02.247Z,6.70
2022-11-05T03:35:03.015Z,6.70
2022-11-05T03:36:02.249Z,6.70
2022-11-05T03:37:01.600Z,6.70
2022-11-05T03:38:02.609Z,6.70
2022-11-05T03:39:02.811Z,6.70
2022-11-05T03:40:02.222Z,6.70
2022-11-05T03:41:02.834Z,6.70
2022-11-05T03:42:02.754Z,6.70
2022-11-05T03:43:03.062Z,6.70
2022-11-05T03:44:02.942Z,6.70
2022-11-05T03:45:02.219Z,6.70
2022-11-05T03:46:05.235Z,6.70
2022-11-05T03:47:03.337Z,6.70
2022-11-05T03:48:00.771Z,6.70
2022-11-05T03:49:01.871Z,6.70
2022-11-05T03:50:10.223Z,6.70
2022-11-05T03:51:10.217Z,6.70
2022-11-05T03:52:06.480Z,6.70
2022-11-05T03:53:03.888Z,6.70
2022-11-05T03:54:01.725Z,6.70
2022-11-05T03:55:00.467Z,6.70
2022-11-05T03:56:10.215Z,6.70
2022-11-05T03:57:04.229Z,6.70
2022-11-05T03:58:00.643Z,6.70
2022-11-05T03:59:01.177Z,6.70
2022-11-05T04:00:00.497Z,6.70
2022-11-05T04:01:00.930Z,6.70
2022-11-05T04:02:01.520Z,6.00
2022-11-05T04:03:00.454Z,6.00
2022-11-05T04:04:00.321Z,6.00
2022-11-05T04:05:00.399Z,6.00
2022-11-05T04:06:00.845Z,6.00
2022-11-05T04:07:00.321Z,6.00
2022-11-05T04:08:00.295Z,6.00
2022-11-05T04:09:00.310Z,6.00
2022-11-05T04:10:00.379Z,6.00
2022-11-05T04:11:00.294Z,6.00
2022-11-05T04:12:00.328Z,6.00
2022-11-05T04:13:11.293Z,6.00
2022-11-05T04:14:05.317Z,6.00
2022-11-05T04:15:00.545Z,6.00
2022-11-05T04:16:00.321Z,6.00
2022-11-05T04:17:00.338Z,6.00
2022-11-05T04:18:00.301Z,6.00
2022-11-05T04:19:00.309Z,6.00
2022-11-05T04:20:00.299Z,6.00
2022-11-05T04:21:00.299Z,6.00
2022-11-05T04:22:00.327Z,6.00
2022-11-05T04:23:02.762Z,6.00
2022-11-05T04:24:00.314Z,6.00
2022-11-05T04:25:00.352Z,6.00
2022-11-05T04:26:00.362Z,6.00
2022-11-05T04:27:00.307Z,6.00
2022-11-05T04:28:00.315Z,6.00
2022-11-05T04:29:03.826Z,6.00
2022-11-05T04:30:00.325Z,6.00
2022-11-05T04:31:00.298Z,6.00
2022-11-05T04:32:00.312Z,5.30
2022-11-05T04:33:02.140Z,5.30
2022-11-05T04:34:00.334Z,5.30
2022-11-05T04:35:00.334Z,5.30
2022-11-05T04:36:00.301Z,5.30
2022-11-05T04:37:00.417Z,5.30
2022-11-05T04:38:00.594Z,5.30
2022-11-05T04:39:00.333Z,5.30
2022-11-05T04:40:00.305Z,5.30
2022-11-05T04:41:10.204Z,5.30
2022-11-05T04:42:00.318Z,5.30
2022-11-05T04:43:00.372Z,5.30
2022-11-05T04:44:00.361Z,5.30
2022-11-05T04:45:00.291Z,5.30
2022-11-05T04:46:00.301Z,5.30
2022-11-05T04:47:00.521Z,5.30
2022-11-05T04:48:02.306Z,5.30
2022-11-05T04:49:00.294Z,5.30
2022-11-05T04:50:00.339Z,5.30
2022-11-05T04:51:00.449Z,5.30
2022-11-05T04:52:00.305Z,5.30
2022-11-05T04:53:00.352Z,5.30
2022-11-05T04:54:00.347Z,5.30
2022-11-05T04:55:00.361Z,5.30
2022-11-05T04:56:10.188Z,5.30
2022-11-05T04:57:00.298Z,5.30
2022-11-05T04:58:00.323Z,5.30
2022-11-05T04:59:00.314Z,5.30
2022-11-05T05:00:00.502Z,5.30
2022-11-05T05:01:00.356Z,5.30
2022-11-05T05:02:00.450Z,5.40
2022-11-05T05:03:00.299Z,5.40
2022-11-05T05:04:00.326Z,5.40
2022-11-05T05:05:00.361Z,5.40
2022-11-05T05:06:03.749Z,5.40
2022-11-05T05:07:00.308Z,5.40
2022-11-05T05:08:01.041Z,5.40
2022-11-05T05:09:00.332Z,5.40
2022-11-05T05:10:00.820Z,5.40
2022-11-05T05:11:01.807Z,5.40
2022-11-05T05:12:00.326Z,5.40
2022-11-05T05:13:00.303Z,5.40
2022-11-05T05:14:00.357Z,5.40
2022-11-05T05:15:00.400Z,5.40
2022-11-05T05:16:04.236Z,5.40
2022-11-05T05:17:00.312Z,5.40
2022-11-05T05:18:00.292Z,5.40
2022-11-05T05:19:00.452Z,5.40
2022-11-05T05:20:00.317Z,5.40
2022-11-05T05:21:00.366Z,5.40
2022-11-05T05:22:00.321Z,5.40
2022-11-05T05:23:00.309Z,5.40
2022-11-05T05:24:00.337Z,5.40
2022-11-05T05:25:00.315Z,5.40
2022-11-05T05:26:00.341Z,5.40
2022-11-05T05:27:00.469Z,5.40
2022-11-05T05:28:00.312Z,5.40
2022-11-05T05:29:00.310Z,5.40
2022-11-05T05:30:00.463Z,5.40
2022-11-05T05:31:00.666Z,5.40
2022-11-05T05:32:00.302Z,5.10
2022-11-05T05:33:01.112Z,5.10
2022-11-05T05:34:00.633Z,5.10
2022-11-05T05:35:00.328Z,5.10
2022-11-05T05:36:00.379Z,5.10
2022-11-05T05:37:00.312Z,5.10
2022-11-05T05:38:00.319Z,5.10
2022-11-05T05:39:00.332Z,5.10
2022-11-05T05:40:00.424Z,5.10
2022-11-05T05:41:00.333Z,5.10
2022-11-05T05:42:00.332Z,5.10
2022-11-05T05:43:00.292Z,5.10
2022-11-05T05:44:00.317Z,5.10
2022-11-05T05:45:00.324Z,5.10
2022-11-05T05:46:03.702Z,5.10
2022-11-05T05:47:00.302Z,5.10
2022-11-05T05:48:00.317Z,5.10
2022-11-05T05:49:00.307Z,5.10
2022-11-05T05:50:00.292Z,5.10
2022-11-05T05:51:00.854Z,5.10
2022-11-05T05:52:00.312Z,5.10
2022-11-05T05:53:00.376Z,5.10
2022-11-05T05:54:00.336Z,5.10
2022-11-05T05:55:00.339Z,5.10
2022-11-05T05:56:00.686Z,5.10
2022-11-05T05:57:00.356Z,5.10
2022-11-05T05:58:00.300Z,5.10
2022-11-05T05:59:00.332Z,5.10
2022-11-05T06:00:00.362Z,5.10
2022-11-05T06:01:01.579Z,5.10
2022-11-05T06:02:00.503Z,3.70
2022-11-05T06:03:00.408Z,3.70
2022-11-05T06:04:00.378Z,3.70
2022-11-05T06:05:00.401Z,3.70
2022-11-05T06:06:01.301Z,3.70
2022-11-05T06:07:00.506Z,3.70
2022-11-05T06:08:00.309Z,3.70
2022-11-05T06:09:00.348Z,3.70
2022-11-05T06:10:00.378Z,3.70
2022-11-05T06:11:00.944Z,3.70
2022-11-05T06:12:00.305Z,3.70
2022-11-05T06:13:00.730Z,3.70
2022-11-05T06:14:00.288Z,3.70
2022-11-05T06:15:00.398Z,3.70
2022-11-05T06:16:01.005Z,3.70
2022-11-05T06:17:00.456Z,3.70
2022-11-05T06:18:00.321Z,3.70
2022-11-05T06:19:04.235Z,3.70
2022-11-05T06:20:00.292Z,3.70
2022-11-05T06:21:02.178Z,3.70
2022-11-05T06:22:00.336Z,3.70
2022-11-05T06:23:01.092Z,3.70
2022-11-05T06:24:00.614Z,3.70
2022-11-05T06:25:00.304Z,3.70
2022-11-05T06:26:01.258Z,3.70
2022-11-05T06:27:00.304Z,3.70
2022-11-05T06:28:00.315Z,3.70
2022-11-05T06:29:00.346Z,3.70
2022-11-05T06:30:00.309Z,3.70
2022-11-05T06:31:00.582Z,3.70
2022-11-05T06:32:00.333Z,4.30
2022-11-05T06:33:02.069Z,4.30
2022-11-05T06:34:00.325Z,4.30
2022-11-05T06:35:00.312Z,4.30
2022-11-05T06:36:01.545Z,4.30
2022-11-05T06:37:00.302Z,4.30
2022-11-05T06:38:00.767Z,4.30
2022-11-05T06:39:00.325Z,4.30
2022-11-05T06:40:00.353Z,4.30
2022-11-05T06:41:04.576Z,4.30
2022-11-05T06:42:19.033Z,4.30
2022-11-05T06:43:00.321Z,4.30
2022-11-05T06:44:00.355Z,4.30
2022-11-05T06:45:00.325Z,4.30
2022-11-05T06:46:01.153Z,4.30
2022-11-05T06:47:00.344Z,4.30
2022-11-05T06:48:00.345Z,4.30
2022-11-05T06:49:00.339Z,4.30
2022-11-05T06:50:00.325Z,4.30
2022-11-05T06:51:00.398Z,4.30
2022-11-05T06:52:00.286Z,4.30
2022-11-05T06:53:01.513Z,4.30
2022-11-05T06:54:00.305Z,4.30
2022-11-05T06:55:00.316Z,4.30
2022-11-05T06:56:01.012Z,4.30
2022-11-05T06:57:00.314Z,4.30
2022-11-05T06:58:00.338Z,4.30
2022-11-05T06:59:00.354Z,4.30
2022-11-05T07:00:03.399Z,4.30
2022-11-05T07:01:02.215Z,4.30
2022-11-05T07:02:00.551Z,3.90
2022-11-05T07:03:04.533Z,3.90
2022-11-05T07:04:00.570Z,3.90
2022-11-05T07:05:00.332Z,3.90
2022-11-05T07:06:00.879Z,3.90
2022-11-05T07:07:00.625Z,3.90
2022-11-05T07:08:00.302Z,3.90
2022-11-05T07:09:00.291Z,3.90
2022-11-05T07:10:00.333Z,3.90
2022-11-05T07:11:00.319Z,3.90
2022-11-05T07:12:00.298Z,3.90
2022-11-05T07:13:08.199Z,3.90
2022-11-05T07:14:00.496Z,3.90
2022-11-05T07:15:00.349Z,3.90
2022-11-05T07:16:00.301Z,3.90
2022-11-05T07:17:00.346Z,3.90
2022-11-05T07:18:00.657Z,3.90
2022-11-05T07:19:00.351Z,3.90
2022-11-05T07:20:00.615Z,3.90
2022-11-05T07:21:00.353Z,3.90
2022-11-05T07:22:00.310Z,3.90
2022-11-05T07:23:01.021Z,3.90
2022-11-05T07:24:00.380Z,3.90
2022-11-05T07:25:00.364Z,3.90
2022-11-05T07:26:00.346Z,3.90
2022-11-05T07:27:00.292Z,3.90
2022-11-05T07:28:00.599Z,3.90
2022-11-05T07:29:00.570Z,3.90
2022-11-05T07:30:00.315Z,3.90
2022-11-05T07:31:00.292Z,3.90
2022-11-05T07:32:00.371Z,3.60
2022-11-05T07:33:00.399Z,3.60
2022-11-05T07:34:00.290Z,3.60
2022-11-05T07:35:00.300Z,3.60
2022-11-05T07:36:00.305Z,3.60
2022-11-05T07:37:00.311Z,3.60
2022-11-05T07:38:00.374Z,3.60
2022-11-05T07:39:00.756Z,3.60
2022-11-05T07:40:00.349Z,3.60
2022-11-05T07:41:00.384Z,3.60
2022-11-05T07:42:00.322Z,3.60
2022-11-05T07:43:00.674Z,3.60
2022-11-05T07:44:00.497Z,3.60
2022-11-05T07:45:00.371Z,3.60
2022-11-05T07:46:00.297Z,3.60
2022-11-05T07:47:00.312Z,3.60
2022-11-05T07:48:01.128Z,3.60
2022-11-05T07:49:00.297Z,3.60
2022-11-05T07:50:00.315Z,3.60
2022-11-05T07:51:00.293Z,3.60
2022-11-05T07:52:00.388Z,3.60
2022-11-05T07:53:00.850Z,3.60
2022-11-05T07:54:00.383Z,3.60
2022-11-05T07:55:00.354Z,3.60
2022-11-05T07:56:00.313Z,3.60
2022-11-05T07:57:00.327Z,3.60
2022-11-05T07:58:00.309Z,3.60
2022-11-05T07:59:00.312Z,3.60
2022-11-05T08:00:00.351Z,3.60
2022-11-05T08:01:00.604Z,3.60
2022-11-05T08:02:00.575Z,3.20
2022-11-05T08:03:08.234Z,3.20
2022-11-05T08:04:00.289Z,3.20
2022-11-05T08:05:00.313Z,3.20
2022-11-05T08:06:00.539Z,3.20
2022-11-05T08:07:00.329Z,3.20
2022-11-05T08:08:00.302Z,3.20
2022-11-05T08:09:00.303Z,3.20
2022-11-05T08:10:00.349Z,3.20
2022-11-05T08:11:02.519Z,3.20
2022-11-05T08:12:03.204Z,3.20
2022-11-05T08:13:00.621Z,3.20
2022-11-05T08:14:00.302Z,3.20
2022-11-05T08:15:00.320Z,3.20
2022-11-05T08:16:00.598Z,3.20
2022-11-05T08:17:00.305Z,3.20
2022-11-05T08:18:01.460Z,3.20
2022-11-05T08:19:00.304Z,3.20
2022-11-05T08:20:00.393Z,3.20
2022-11-05T08:21:01.508Z,3.20
2022-11-05T08:22:00.303Z,3.20
2022-11-05T08:23:00.417Z,3.20
2022-11-05T08:24:00.297Z,3.20
2022-11-05T08:25:05.656Z,3.20
2022-11-05T08:26:01.674Z,3.20
2022-11-05T08:27:00.314Z,3.20
2022-11-05T08:28:01.694Z,3.20
2022-11-05T08:29:00.337Z,3.20
2022-11-05T08:30:00.302Z,3.20
2022-11-05T08:31:00.324Z,3.20
2022-11-05T08:32:00.311Z,3.30
2022-11-05T08:33:01.515Z,3.30
2022-11-05T08:34:02.659Z,3.30
2022-11-05T08:35:00.297Z,3.30
2022-11-05T08:36:01.007Z,3.30
2022-11-05T08:37:00.999Z,3.30
2022-11-05T08:38:01.480Z,3.30
2022-11-05T08:39:00.312Z,3.30
2022-11-05T08:40:00.297Z,3.30
2022-11-05T08:41:00.558Z,3.30
2022-11-05T08:42:00.306Z,3.30
2022-11-05T08:43:01.081Z,3.30
2022-11-05T08:44:00.309Z,3.30
2022-11-05T08:45:00.313Z,3.30
2022-11-05T08:46:00.506Z,3.30
2022-11-05T08:47:00.316Z,3.30
2022-11-05T08:48:05.603Z,3.30
2022-11-05T08:49:00.332Z,3.30
2022-11-05T08:50:00.312Z,3.30
2022-11-05T08:51:00.314Z,3.30
2022-11-05T08:52:00.348Z,3.30
2022-11-05T08:53:00.330Z,3.30
2022-11-05T08:54:00.384Z,3.30
2022-11-05T08:55:00.348Z,3.30
2022-11-05T08:56:00.317Z,3.30
2022-11-05T08:57:00.303Z,3.30
2022-11-05T08:58:01.776Z,3.30
2022-11-05T08:59:00.361Z,3.30
2022-11-05T09:00:00.414Z,3.30
2022-11-05T09:01:05.177Z,3.30
2022-11-05T09:02:00.474Z,2.90
2022-11-05T09:03:01.200Z,2.90
2022-11-05T09:04:00.471Z,2.90
2022-11-05T09:05:00.308Z,2.90
2022-11-05T09:06:00.343Z,2.90
2022-11-05T09:07:00.325Z,2.90
2022-11-05T09:08:01.609Z,2.90
2022-11-05T09:09:00.311Z,2.90
2022-11-05T09:10:00.300Z,2.90
2022-11-05T09:11:00.462Z,2.90
2022-11-05T09:12:12.641Z,2.90
2022-11-05T09:13:00.298Z,2.90
2022-11-05T09:14:00.330Z,2.90
2022-11-05T09:15:00.306Z,2.90
2022-11-05T09:16:00.340Z,2.90
2022-11-05T09:17:00.328Z,2.90
2022-11-05T09:18:00.628Z,2.90
2022-11-05T09:19:00.304Z,2.90
2022-11-05T09:20:01.034Z,2.90
2022-11-05T09:21:00.302Z,2.90
2022-11-05T09:22:00.422Z,2.90
2022-11-05T09:23:00.306Z,2.90
2022-11-05T09:24:00.311Z,2.90
2022-11-05T09:25:00.325Z,2.90
2022-11-05T09:26:00.338Z,2.90
2022-11-05T09:27:00.303Z,2.90
2022-11-05T09:28:14.642Z,2.90
2022-11-05T09:29:00.337Z,2.90
2022-11-05T09:30:00.305Z,2.90
2022-11-05T09:31:04.433Z,2.90
2022-11-05T09:32:00.309Z,3.50
2022-11-05T09:33:00.294Z,3.50
2022-11-05T09:34:00.308Z,3.50
2022-11-05T09:35:00.369Z,3.50
2022-11-05T09:36:00.345Z,3.50
2022-11-05T09:37:00.333Z,3.50
2022-11-05T09:38:01.242Z,3.50
2022-11-05T09:39:00.297Z,3.50
2022-11-05T09:40:00.674Z,3.50
2022-11-05T09:41:10.201Z,3.50
2022-11-05T09:42:03.296Z,3.50
2022-11-05T09:43:00.990Z,3.50
2022-11-05T09:44:02.567Z,3.50
2022-11-05T09:45:01.875Z,3.50
2022-11-05T09:46:03.911Z,3.50
2022-11-05T09:47:03.595Z,3.50
2022-11-05T09:48:03.269Z,3.50
2022-11-05T09:49:03.324Z,3.50
2022-11-05T09:50:02.543Z,3.50
2022-11-05T09:51:00.386Z,3.50
2022-11-05T09:52:00.817Z,3.50
2022-11-05T09:53:00.772Z,3.50
2022-11-05T09:54:00.582Z,3.50
2022-11-05T09:55:02.028Z,3.50
2022-11-05T09:56:00.354Z,3.50
2022-11-05T09:57:01.776Z,3.50
2022-11-05T09:58:02.508Z,3.50
2022-11-05T09:59:10.207Z,3.50
2022-11-05T10:00:01.742Z,3.50
2022-11-05T10:01:01.804Z,3.50
2022-11-05T10:02:03.203Z,2.90
2022-11-05T10:03:04.253Z,2.90
2022-11-05T10:04:05.001Z,2.90
2022-11-05T10:05:08.222Z,2.90
2022-11-05T10:06:06.704Z,2.90
2022-11-05T10:07:01.802Z,2.90
2022-11-05T10:08:04.003Z,2.90
2022-11-05T10:09:04.622Z,2.90
2022-11-05T10:10:03.360Z,2.90
2022-11-05T10:11:02.647Z,2.90
2022-11-05T10:12:05.369Z,2.90
2022-11-05T10:13:04.105Z,2.90
2022-11-05T10:14:06.615Z,2.90
2022-11-05T10:15:10.189Z,2.90
2022-11-05T10:16:03.764Z,2.90
2022-11-05T10:17:03.668Z,2.90
2022-11-05T10:18:08.520Z,2.90
2022-11-05T10:19:05.679Z,2.90
2022-11-05T10:20:03.588Z,2.90
2022-11-05T10:21:00.638Z,2.90
2022-11-05T10:22:08.011Z,2.90
2022-11-05T10:23:07.410Z,2.90
2022-11-05T10:24:00.561Z,2.90
2022-11-05T10:25:00.372Z,2.90
2022-11-05T10:26:10.184Z,2.90
2022-11-05T10:27:00.481Z,2.90
2022-11-05T10:28:02.671Z,2.90
2022-11-05T10:29:00.302Z,2.90
2022-11-05T10:30:00.497Z,2.90
2022-11-05T10:31:01.966Z,2.90
2022-11-05T10:32:02.435Z,2.60
2022-11-05T10:33:03.655Z,2.60
2022-11-05T10:34:02.532Z,2.60
2022-11-05T10:35:03.203Z,2.60
2022-11-05T10:36:04.995Z,2.60
2022-11-05T10:37:00.443Z,2.60
2022-11-05T10:38:00.786Z,2.60
2022-11-05T10:39:10.197Z,2.60
2022-11-05T10:40:00.324Z,2.60
2022-11-05T10:41:03.550Z,2.60
2022-11-05T10:42:10.204Z,2.60
2022-11-05T10:43:10.420Z,2.60
2022-11-05T10:44:06.907Z,2.60
2022-11-05T10:45:10.217Z,2.60
2022-11-05T10:46:03.580Z,2.60
2022-11-05T10:47:08.204Z,2.60
2022-11-05T10:48:10.208Z,2.60
2022-11-05T10:49:10.211Z,2.60
2022-11-05T10:50:01.580Z,2.60
2022-11-05T10:51:00.378Z,2.60
2022-11-05T10:52:10.193Z,2.60
2022-11-05T10:53:01.903Z,2.60
2022-11-05T10:54:04.371Z,2.60
2022-11-05T10:55:01.784Z,2.60
2022-11-05T10:56:00.991Z,2.60
2022-11-05T10:57:10.192Z,2.60
2022-11-05T10:58:10.192Z,2.60
2022-11-05T10:59:00.527Z,2.60
2022-11-05T11:00:10.268Z,2.60
2022-11-05T11:01:05.090Z,2.60
2022-11-05T11:02:10.359Z,2.60
2022-11-05T11:03:01.415Z,2.60
2022-11-05T11:04:10.192Z,2.60
2022-11-05T11:05:00.446Z,2.60
2022-11-05T11:06:02.066Z,2.60
2022-11-05T11:07:01.222Z,2.60
2022-11-05T11:08:00.281Z,2.60
2022-11-05T11:09:01.676Z,2.60
2022-11-05T11:10:00.388Z,2.60
2022-11-05T11:11:02.641Z,2.60
2022-11-05T11:12:03.113Z,2.60
2022-11-05T11:13:01.028Z,2.60
2022-11-05T11:14:01.928Z,2.60
2022-11-05T11:15:00.305Z,2.60
2022-11-05T11:16:10.207Z,2.60
2022-11-05T11:17:10.186Z,2.60
2022-11-05T11:18:10.195Z,2.60
2022-11-05T11:19:00.636Z,2.60
2022-11-05T11:20:10.195Z,2.60
2022-11-05T11:21:04.875Z,2.60
2022-11-05T11:22:03.573Z,2.60
2022-11-05T11:23:01.827Z,2.60
2022-11-05T11:24:01.747Z,2.60
2022-11-05T11:25:10.222Z,2.60
2022-11-05T11:26:00.915Z,2.60
2022-11-05T11:27:01.980Z,2.60
2022-11-05T11:28:01.623Z,2.60
2022-11-05T11:29:10.199Z,2.60
2022-11-05T11:30:01.533Z,2.60
2022-11-05T11:31:03.691Z,2.60
2022-11-05T11:32:00.513Z,3.20
2022-11-05T11:33:05.937Z,3.20
2022-11-05T11:34:02.413Z,3.20
2022-11-05T11:35:00.742Z,3.20
2022-11-05T11:36:00.345Z,3.20
2022-11-05T11:37:04.276Z,3.20
2022-11-05T11:38:00.345Z,3.20
2022-11-05T11:39:02.309Z,3.20
2022-11-05T11:40:03.436Z,3.20
2022-11-05T11:41:04.867Z,3.20
2022-11-05T11:42:04.473Z,3.20
2022-11-05T11:43:03.142Z,3.20
2022-11-05T11:44:03.878Z,3.20
2022-11-05T11:45:04.633Z,3.20
2022-11-05T11:46:05.388Z,3.20
2022-11-05T11:47:10.210Z,3.20
2022-11-05T11:48:03.128Z,3.20
2022-11-05T11:49:00.387Z,3.20
2022-11-05T11:50:00.946Z,3.20
2022-11-05T11:51:10.190Z,3.20
2022-11-05T11:52:02.897Z,3.20
2022-11-05T11:53:10.537Z,3.20
2022-11-05T11:54:00.846Z,3.20
2022-11-05T11:55:10.250Z,3.20
2022-11-05T11:56:02.354Z,3.20
2022-11-05T11:57:00.651Z,3.20
2022-11-05T11:58:10.133Z,3.20
2022-11-05T11:59:02.305Z,3.20
2022-11-05T12:00:09.481Z,3.20
2022-11-05T12:01:08.611Z,3.20
2022-11-05T12:02:10.289Z,3.20
2022-11-05T12:03:03.693Z,3.20
2022-11-05T12:04:00.281Z,3.20
2022-11-05T12:05:07.821Z,3.20
2022-11-05T12:06:10.221Z,3.20
2022-11-05T12:07:10.191Z,3.20
2022-11-05T12:08:03.624Z,3.20
2022-11-05T12:09:07.683Z,3.20
2022-11-05T12:10:10.218Z,3.20
2022-11-05T12:11:04.822Z,3.20
2022-11-05T12:12:01.300Z,3.20
2022-11-05T12:13:03.667Z,3.20
2022-11-05T12:14:02.665Z,3.20
2022-11-05T12:15:05.376Z,3.20
2022-11-05T12:16:10.219Z,3.20
2022-11-05T12:17:10.238Z,3.20
2022-11-05T12:18:01.812Z,3.20
2022-11-05T12:19:10.201Z,3.20
2022-11-05T12:20:10.226Z,3.20
2022-11-05T12:21:05.021Z,3.20
2022-11-05T12:22:00.316Z,3.20
2022-11-05T12:23:03.567Z,3.20
2022-11-05T12:24:03.584Z,3.20
2022-11-05T12:25:09.799Z,3.20
2022-11-05T12:26:10.194Z,3.20
2022-11-05T12:27:03.582Z,3.20
2022-11-05T12:28:10.229Z,3.20
2022-11-05T12:29:18.898Z,3.20
2022-11-05T12:30:04.006Z,3.20
2022-11-05T12:31:10.213Z,3.20
2022-11-05T12:32:09.136Z,4.10
2022-11-05T12:33:00.384Z,4.10
2022-11-05T12:34:10.254Z,4.10
2022-11-05T12:35:10.221Z,4.10
2022-11-05T12:36:08.937Z,4.10
2022-11-05T12:37:01.346Z,4.10
2022-11-05T12:38:10.222Z,4.10
2022-11-05T12:39:10.197Z,4.10
2022-11-05T12:40:00.288Z,4.10
2022-11-05T12:41:10.216Z,4.10
2022-11-05T12:42:01.731Z,4.10
2022-11-05T12:43:01.322Z,4.10
2022-11-05T12:44:00.295Z,4.10
2022-11-05T12:45:03.018Z,4.10
2022-11-05T12:46:00.291Z,4.10
2022-11-05T12:47:10.199Z,4.10
2022-11-05T12:48:03.617Z,4.10
2022-11-05T12:49:00.295Z,4.10
2022-11-05T12:50:10.217Z,4.10
2022-11-05T12:51:10.190Z,4.10
2022-11-05T12:52:03.642Z,4.10
2022-11-05T12:53:10.599Z,4.10
2022-11-05T12:54:10.199Z,4.10
2022-11-05T12:55:03.636Z,4.10
2022-11-05T12:56:02.511Z,4.10
2022-11-05T12:57:01.833Z,4.10
2022-11-05T12:58:07.755Z,4.10
2022-11-05T12:59:03.344Z,4.10
2022-11-05T13:00:10.268Z,4.10
2022-11-05T13:01:04.570Z,4.10
2022-11-05T13:02:10.309Z,2.40
2022-11-05T13:03:01.319Z,2.40
2022-11-05T13:04:01.866Z,2.40
2022-11-05T13:05:05.499Z,2.40
2022-11-05T13:06:06.073Z,2.40
2022-11-05T13:07:03.863Z,2.40
2022-11-05T13:08:01.320Z,2.40
2022-11-05T13:09:02.924Z,2.40
2022-11-05T13:10:04.146Z,2.40
2022-11-05T13:11:09.101Z,2.40
2022-11-05T13:12:04.016Z,2.40
2022-11-05T13:13:05.382Z,2.40
2022-11-05T13:14:05.104Z,2.40
2022-11-05T13:15:02.783Z,2.40
2022-11-05T13:16:03.899Z,2.40
2022-11-05T13:17:03.011Z,2.40
2022-11-05T13:18:10.198Z,2.40